Terminal Aerodrome Forecast
Issued by NWS

Home | Current Version | Previous Version | Text Only | Print | Product List | Glossary On
Versions: 1 2 3 4 5 6 7 8 9 10 11 12 13 14 15 16 17 18 19 20 21 22 23 24 25 26 27 28 29 30
000
FTUS45 KBYZ 251136
TAFLVM
TAF
KLVM 251136Z 2512/2612 25016KT P6SM VCSH BKN070 OVC080
     FM251300 26023G30KT P6SM VCSH BKN030 OVC040
     FM252300 29015KT P6SM BKN060
     FM260400 26008KT P6SM BKN100
     FM260900 05005KT P6SM OVC080=

USA.gov is the U.S. government's official web portal to all federal, state and local government web resources and services.